CYED/YED METAR and TAF weather

Enter ICAO airport designator
Station Type Date Time Source
CYED METAR 2021/08/02 01:00 UTC NOAA

CYED 020100Z AUTO 34004KT 9SM FEW096 26/18 A3007 RMK SLP182


Station Type Date Time Source
CYED Decoded METAR 2021/08/02 01:00 UTC NOAA

Edmonton Namao Alta., Canada (CYED) 53-40N 113-28W 688M
Aug 01, 2021 - 09:00 PM EDT / 2021.08.02 0100 UTC
Wind: from the NNW (340 degrees) at 5 MPH (4 KT):0
Visibility: 9 mile(s):0
Sky conditions: mostly clear
Temperature: 78 F (26 C)
Dew Point: 64 F (18 C)
Relative Humidity: 61%
Pressure (altimeter): 30.07 in. Hg (1018 hPa)
ob: CYED 020100Z AUTO 34004KT 9SM FEW096 26/18 A3007 RMK SLP182
cycle: 1

Station Type Date Time Source
CYED TAF 2021/07/31 00:00 UTC NOAA

TAF
AMD CYED 310559Z 3100/3112 FCST CNCLD DUE END OF FLYING PROGRAM
RMK NXT FCST WILL BE ISSUED AT 031215Z

Example: see airport list